createdAt,value
2023-02-05T00:00:42.572Z,19.57
2023-02-05T00:05:34.748Z,18.52
2023-02-05T00:10:26.736Z,18.88
2023-02-05T00:15:18.763Z,18.40
2023-02-05T00:20:11.103Z,19.63
2023-02-05T00:25:02.929Z,17.98
2023-02-05T00:29:54.693Z,18.83
2023-02-05T00:34:46.722Z,19.48
2023-02-05T00:39:38.600Z,19.25
2023-02-05T00:44:30.370Z,19.85
2023-02-05T00:49:22.158Z,18.40
2023-02-05T00:54:14.031Z,18.08
2023-02-05T00:59:05.787Z,18.67
2023-02-05T01:03:57.804Z,20.13
2023-02-05T01:08:49.626Z,18.40
2023-02-05T01:13:41.958Z,19.48
2023-02-05T01:18:33.926Z,18.58
2023-02-05T01:23:26.010Z,19.13
2023-02-05T01:28:18.668Z,17.90
2023-02-05T01:33:11.094Z,17.92
2023-02-05T01:38:02.866Z,19.13
2023-02-05T01:42:54.719Z,17.38
2023-02-05T01:47:47.320Z,17.15
2023-02-05T01:52:39.123Z,16.83
2023-02-05T01:57:30.994Z,17.38
2023-02-05T02:02:22.854Z,17.33
2023-02-05T02:07:19.242Z,16.80
2023-02-05T02:12:14.507Z,16.73
2023-02-05T02:17:07.409Z,16.23
2023-02-05T02:22:36.945Z,16.13
2023-02-05T02:27:34.359Z,16.40
2023-02-05T02:32:39.852Z,15.50
2023-02-05T02:38:10.866Z,15.30
2023-02-05T02:43:10.663Z,16.38
2023-02-05T02:48:03.881Z,15.27
2023-02-05T02:52:56.226Z,16.20
2023-02-05T02:57:49.368Z,16.35
2023-02-05T03:02:42.756Z,15.27
2023-02-05T03:07:40.177Z,15.68
2023-02-05T03:12:32.149Z,14.90
2023-02-05T03:17:25.087Z,14.77
2023-02-05T03:22:17.838Z,14.57
2023-02-05T03:27:09.706Z,15.10
2023-02-05T03:32:32.428Z,14.43
2023-02-05T03:37:51.365Z,13.70
2023-02-05T03:43:21.267Z,13.75
2023-02-05T03:48:35.436Z,15.02
2023-02-05T03:53:40.382Z,14.13
2023-02-05T03:58:42.633Z,13.43
2023-02-05T04:03:34.792Z,13.95
2023-02-05T04:08:26.757Z,14.00
2023-02-05T04:13:19.370Z,13.43
2023-02-05T04:18:11.979Z,13.53
2023-02-05T04:23:03.929Z,13.70
2023-02-05T04:27:57.691Z,13.50
2023-02-05T04:32:49.648Z,13.77
2023-02-05T04:37:42.904Z,14.20
2023-02-05T04:42:35.205Z,12.65
2023-02-05T04:47:26.969Z,13.02
2023-02-05T04:52:18.774Z,13.43
2023-02-05T04:57:10.620Z,12.68
2023-02-05T05:02:02.407Z,13.68
2023-02-05T05:06:54.257Z,12.82
2023-02-05T05:11:46.001Z,13.52
2023-02-05T05:16:37.779Z,13.50
2023-02-05T05:21:29.521Z,12.75
2023-02-05T05:26:21.243Z,13.60
2023-02-05T05:31:25.467Z,12.68
2023-02-05T05:36:17.753Z,12.32
2023-02-05T05:41:36.527Z,12.65
2023-02-05T05:46:28.362Z,12.23
2023-02-05T05:51:21.028Z,13.30
2023-02-05T05:56:13.174Z,12.90
2023-02-05T06:01:05.830Z,13.02
2023-02-05T06:06:01.234Z,12.83
2023-02-05T06:10:53.061Z,12.52
2023-02-05T06:15:44.839Z,13.30
2023-02-05T06:20:36.678Z,13.30
2023-02-05T06:25:28.548Z,12.57
2023-02-05T06:30:20.453Z,13.70
2023-02-05T06:35:12.207Z,13.95
2023-02-05T06:40:04.142Z,13.82
2023-02-05T06:44:56.026Z,13.90
2023-02-05T06:49:47.803Z,12.55
2023-02-05T06:54:39.602Z,13.40
2023-02-05T06:59:31.391Z,13.25
2023-02-05T07:04:23.175Z,13.98
2023-02-05T07:09:15.043Z,13.82
2023-02-05T07:14:06.769Z,14.35
2023-02-05T07:18:58.676Z,13.95
2023-02-05T07:23:50.504Z,14.52
2023-02-05T07:28:42.625Z,14.32
2023-02-05T07:33:34.650Z,12.85
2023-02-05T07:38:26.581Z,13.80
2023-02-05T07:43:18.366Z,13.13
2023-02-05T07:48:10.206Z,14.45
2023-02-05T07:53:02.019Z,13.43
2023-02-05T07:57:53.780Z,13.77
2023-02-05T08:02:45.602Z,13.95
2023-02-05T08:07:38.284Z,13.25
2023-02-05T08:12:30.065Z,13.93
2023-02-05T08:17:21.991Z,13.27
2023-02-05T08:22:13.745Z,14.27
2023-02-05T08:27:05.517Z,13.10
2023-02-05T08:31:57.290Z,14.25
2023-02-05T08:36:49.221Z,14.55
2023-02-05T08:41:40.951Z,13.98
2023-02-05T08:46:48.511Z,15.52
2023-02-05T08:51:41.651Z,14.15
2023-02-05T08:56:33.379Z,15.18
2023-02-05T09:01:25.221Z,13.90
2023-02-05T09:06:17.004Z,14.60
2023-02-05T09:11:09.056Z,13.82
2023-02-05T09:16:01.094Z,14.68
2023-02-05T09:20:54.501Z,14.85
2023-02-05T09:25:46.334Z,14.63
2023-02-05T09:30:40.147Z,14.65
2023-02-05T09:35:35.688Z,14.95
2023-02-05T09:40:34.168Z,14.38
2023-02-05T09:45:41.299Z,14.50
2023-02-05T09:50:33.924Z,14.15
2023-02-05T09:55:30.665Z,14.38
2023-02-05T10:00:29.732Z,14.90
2023-02-05T10:05:22.449Z,14.07
2023-02-05T10:10:28.523Z,11.43
2023-02-05T10:15:20.279Z,14.35
2023-02-05T10:20:33.921Z,14.85
2023-02-05T10:25:50.308Z,14.82
2023-02-05T10:30:48.305Z,14.77
2023-02-05T10:35:57.581Z,14.45
2023-02-05T10:40:51.827Z,14.57
2023-02-05T10:45:44.036Z,14.55
2023-02-05T10:51:01.227Z,14.10
2023-02-05T10:55:53.111Z,13.93
2023-02-05T11:00:44.962Z,14.45
2023-02-05T11:05:41.845Z,15.00
2023-02-05T11:10:35.885Z,15.18
2023-02-05T11:15:29.751Z,15.25
2023-02-05T11:25:21.321Z,15.57
2023-02-05T11:30:50.392Z,15.13
2023-02-05T11:35:53.895Z,15.00
2023-02-05T11:40:54.856Z,14.93
2023-02-05T11:45:52.027Z,15.32
2023-02-05T11:50:44.315Z,15.00
2023-02-05T11:55:36.400Z,14.48
2023-02-05T12:00:28.764Z,14.68
2023-02-05T12:05:31.543Z,14.70
2023-02-05T12:10:48.238Z,14.60
2023-02-05T12:16:14.528Z,14.38
2023-02-05T12:21:35.800Z,14.68
2023-02-05T12:26:42.398Z,13.48
2023-02-05T12:31:48.882Z,14.07
2023-02-05T12:37:06.317Z,13.07
2023-02-05T12:42:16.831Z,13.73
2023-02-05T12:47:20.602Z,13.00
2023-02-05T12:52:21.151Z,12.93
2023-02-05T12:57:30.530Z,13.10
2023-02-05T13:02:35.168Z,12.50
2023-02-05T13:07:36.335Z,13.73
2023-02-05T13:12:32.527Z,12.35
2023-02-05T13:17:27.327Z,11.20
2023-02-05T13:22:42.273Z,13.23
2023-02-05T13:28:00.733Z,12.60
2023-02-05T13:32:56.421Z,12.43
2023-02-05T13:38:14.698Z,11.15
2023-02-05T13:43:31.787Z,11.40
2023-02-05T13:48:44.495Z,11.63
2023-02-05T13:54:15.052Z,11.07
2023-02-05T13:59:23.845Z,11.73
2023-02-05T14:04:25.740Z,11.48
2023-02-05T14:09:25.139Z,10.98
2023-02-05T14:14:16.899Z,11.40
2023-02-05T14:19:15.956Z,9.93
2023-02-05T14:24:28.118Z,11.00
2023-02-05T14:29:41.025Z,11.15
2023-02-05T14:34:32.757Z,11.23
2023-02-05T14:39:35.345Z,10.43
2023-02-05T14:44:32.174Z,10.35
2023-02-05T14:49:28.030Z,9.13
2023-02-05T14:54:22.954Z,10.20
2023-02-05T14:59:29.374Z,10.00
2023-02-05T15:04:56.605Z,9.68
2023-02-05T15:10:01.276Z,9.63
2023-02-05T15:14:55.634Z,9.60
2023-02-05T15:19:50.485Z,9.25
2023-02-05T15:24:44.422Z,9.70
2023-02-05T15:29:41.906Z,9.07
2023-02-05T15:34:47.008Z,10.23
2023-02-05T15:39:55.917Z,9.35
2023-02-05T15:44:47.757Z,9.32
2023-02-05T15:49:45.068Z,8.60
2023-02-05T15:54:37.107Z,9.35
2023-02-05T15:59:30.964Z,9.13
2023-02-05T16:04:22.731Z,9.23
2023-02-05T16:09:24.221Z,9.52
2023-02-05T16:14:21.747Z,8.27
2023-02-05T16:19:19.509Z,8.35
2023-02-05T16:24:35.034Z,8.95
2023-02-05T16:29:47.760Z,9.07
2023-02-05T16:34:40.773Z,8.40
2023-02-05T16:39:38.741Z,8.37
2023-02-05T16:44:36.778Z,7.75
2023-02-05T16:49:29.264Z,8.23
2023-02-05T16:54:21.172Z,8.47
2023-02-05T16:59:19.774Z,7.95
2023-02-05T17:04:26.869Z,7.53
2023-02-05T17:09:38.973Z,8.27
2023-02-05T17:14:32.693Z,7.55
2023-02-05T17:19:27.640Z,7.78
2023-02-05T17:24:19.375Z,11.05
2023-02-05T17:29:15.908Z,7.30
2023-02-05T17:34:07.792Z,7.25
2023-02-05T17:38:59.721Z,8.27
2023-02-05T17:43:51.542Z,6.75
2023-02-05T17:48:44.865Z,6.22
2023-02-05T17:53:36.610Z,7.20
2023-02-05T17:58:28.460Z,7.38
2023-02-05T18:03:20.255Z,6.93
2023-02-05T18:08:12.187Z,6.72
2023-02-05T18:13:04.095Z,6.82
2023-02-05T18:17:55.954Z,6.20
2023-02-05T18:22:49.082Z,6.40
2023-02-05T18:27:40.978Z,7.00
2023-02-05T18:32:32.819Z,7.22
2023-02-05T18:37:26.432Z,7.10
2023-02-05T18:42:18.415Z,6.35
2023-02-05T18:47:11.439Z,6.30
2023-02-05T18:52:03.332Z,6.20
2023-02-05T18:56:56.406Z,5.70
2023-02-05T19:01:48.164Z,6.40
2023-02-05T19:06:44.513Z,6.82
2023-02-05T19:11:40.915Z,6.35
2023-02-05T19:16:34.548Z,6.22
2023-02-05T19:21:29.075Z,6.35
2023-02-05T19:26:24.865Z,6.47
2023-02-05T19:31:16.760Z,6.43
2023-02-05T19:36:10.135Z,6.75
2023-02-05T19:41:15.741Z,6.15
2023-02-05T19:46:08.489Z,6.30
2023-02-05T19:51:08.222Z,7.03
2023-02-05T19:56:07.304Z,6.10
2023-02-05T20:00:59.120Z,5.90
2023-02-05T20:05:51.204Z,6.55
2023-02-05T20:10:43.210Z,6.35
2023-02-05T20:15:36.545Z,5.90
2023-02-05T20:20:33.891Z,6.22
2023-02-05T20:25:25.875Z,6.55
2023-02-05T20:30:36.709Z,6.22
2023-02-05T20:35:28.793Z,5.97
2023-02-05T20:40:20.540Z,6.60
2023-02-05T20:45:12.334Z,5.72
2023-02-05T20:50:04.378Z,6.10
2023-02-05T20:54:57.204Z,5.53
2023-02-05T20:59:49.107Z,5.70
2023-02-05T21:04:40.991Z,5.97
2023-02-05T21:09:32.994Z,5.65
2023-02-05T21:14:25.136Z,5.82
2023-02-05T21:19:18.649Z,5.78
2023-02-05T21:29:07.839Z,5.53
2023-02-05T21:34:04.534Z,5.45
2023-02-05T21:38:56.940Z,5.32
2023-02-05T21:43:56.989Z,5.45
2023-02-05T21:48:51.599Z,6.25
2023-02-05T21:53:43.512Z,5.57
2023-02-05T21:58:36.828Z,5.00
2023-02-05T22:08:20.487Z,5.03
2023-02-05T22:13:12.283Z,5.03
2023-02-05T22:18:04.135Z,4.95
2023-02-05T22:22:56.039Z,5.25
2023-02-05T22:27:48.131Z,4.88
2023-02-05T22:32:39.919Z,5.15
2023-02-05T22:37:31.697Z,5.35
2023-02-05T22:42:24.868Z,4.93
2023-02-05T22:47:16.657Z,4.32
2023-02-05T22:52:08.550Z,4.68
2023-02-05T22:57:00.379Z,5.03
2023-02-05T23:01:52.191Z,4.53
2023-02-05T23:06:45.165Z,4.47
2023-02-05T23:11:37.578Z,4.32
2023-02-05T23:16:31.667Z,4.72
2023-02-05T23:21:25.338Z,4.60
2023-02-05T23:26:19.804Z,4.45
2023-02-05T23:31:11.781Z,5.20
2023-02-05T23:36:04.475Z,4.43
2023-02-05T23:40:57.076Z,4.90
2023-02-05T23:45:49.998Z,5.60
2023-02-05T23:50:43.712Z,4.43
2023-02-05T23:55:42.772Z,5.18
